Time;durP1;ratioP1;P1;durP2;ratioP2;P2;SDS_P1;SDS_P2;PMS_P1;PMS_P2;Temp;Humidity;BMP_temperature;BMP_pressure;BME280_temperature;BME280_humidity;BME280_pressure;Samples;Min_cycle;Max_cycle;Signal;HPM_P1;HPM_P2
2021/12/12 00:01:45;;;;;;;107.43;19.73;;;;;;;5.08;100.00;98633.72;5073301;28;20583;-63
2021/12/12 00:04:18;;;;;;;72.03;16.67;;;;;;;5.09;100.00;98628.22;5073435;28;20615;-63
2021/12/12 00:06:52;;;;;;;98.30;20.80;;;;;;;5.19;100.00;98628.59;5073239;28;20595;-64
2021/12/12 00:09:23;;;;;;;52.23;16.30;;;;;;;5.12;100.00;98633.09;5073188;28;20642;-64
2021/12/12 00:11:50;;;;;;;74.60;17.07;;;;;;;5.12;100.00;98625.16;5073137;28;20614;-63
2021/12/12 00:14:20;;;;;;;82.10;17.03;;;;;;;5.10;100.00;98629.84;5073261;28;20622;-63
2021/12/12 00:16:48;;;;;;;88.17;18.80;;;;;;;5.10;100.00;98624.56;5072895;28;20638;-63
2021/12/12 00:19:15;;;;;;;59.90;15.33;;;;;;;5.07;100.00;98624.97;5081493;28;20594;-63
2021/12/12 00:21:49;;;;;;;71.33;16.10;;;;;;;5.08;100.00;98631.06;5083718;28;21384;-64
2021/12/12 00:24:18;;;;;;;77.10;18.13;;;;;;;4.99;100.00;98642.91;5081514;28;20607;-63
2021/12/12 00:26:49;;;;;;;63.70;16.83;;;;;;;5.00;100.00;98653.31;5082142;28;20595;-63
2021/12/12 00:29:20;;;;;;;104.50;17.90;;;;;;;4.99;100.00;98659.63;5084721;28;20667;-63
2021/12/12 00:31:49;;;;;;;79.17;16.83;;;;;;;4.98;100.00;98652.72;5083138;28;20648;-64
2021/12/12 00:34:17;;;;;;;78.40;17.10;;;;;;;4.92;100.00;98658.81;5081045;28;20595;-63
2021/12/12 00:36:44;;;;;;;76.90;17.97;;;;;;;4.94;100.00;98651.50;5082124;28;20661;-63
2021/12/12 00:39:16;;;;;;;63.87;16.27;;;;;;;4.88;100.00;98647.84;5084522;28;20614;-63
2021/12/12 00:41:49;;;;;;;76.83;19.00;;;;;;;4.89;100.00;98656.59;5083504;28;20623;-63
2021/12/12 00:44:16;;;;;;;75.00;18.63;;;;;;;4.89;100.00;98656.59;5081030;28;20626;-63
2021/12/12 00:46:44;;;;;;;77.60;16.83;;;;;;;4.93;100.00;98659.63;5081784;28;20607;-64
2021/12/12 00:49:13;;;;;;;48.93;15.37;;;;;;;5.00;100.00;98671.00;5087501;28;20606;-62
2021/12/12 00:51:43;;;;;;;66.10;15.90;;;;;;;4.97;100.00;98674.91;5082643;28;20622;-63
2021/12/12 00:54:13;;;;;;;58.30;15.83;;;;;;;4.95;100.00;98684.06;5080590;28;20633;-63
2021/12/12 00:56:40;;;;;;;85.23;19.27;;;;;;;4.98;100.00;98684.47;5080948;28;20641;-63
2021/12/12 00:59:08;;;;;;;79.80;19.03;;;;;;;4.98;100.00;98684.47;5084299;28;20640;-64
2021/12/12 01:01:42;;;;;;;85.93;20.37;;;;;;;5.01;100.00;98684.06;5084347;28;20602;-62
2021/12/12 01:04:14;;;;;;;52.33;16.90;;;;;;;5.05;100.00;98685.25;5080698;28;20641;-63
2021/12/12 01:06:42;;;;;;;77.00;16.60;;;;;;;5.05;100.00;98684.44;5081050;28;20599;-63
2021/12/12 01:09:16;;;;;;;65.60;18.47;;;;;;;5.06;100.00;98684.25;5083757;28;20598;-64
2021/12/12 01:11:46;;;;;;;96.57;17.30;;;;;;;5.03;100.00;98671.41;5082485;28;20644;-63
2021/12/12 01:14:16;;;;;;;93.83;18.73;;;;;;;5.09;100.00;98667.94;5080308;28;20633;-64
2021/12/12 01:16:46;;;;;;;92.27;18.80;;;;;;;5.09;100.00;98677.72;5081121;28;20633;-62
2021/12/12 01:19:17;;;;;;;71.07;17.23;;;;;;;5.09;100.00;98678.53;5086893;28;20608;-63
2021/12/12 01:21:47;;;;;;;72.83;17.27;;;;;;;5.14;100.00;98689.28;5082486;28;20609;-63
2021/12/12 01:24:18;;;;;;;56.53;15.97;;;;;;;5.12;100.00;98696.63;5080185;28;20611;-63
2021/12/12 01:26:47;;;;;;;79.53;16.67;;;;;;;5.14;100.00;98691.94;5081339;28;20608;-64
2021/12/12 01:29:14;;;;;;;59.17;16.07;;;;;;;5.14;100.00;98699.06;5083655;28;20610;-63
2021/12/12 01:31:47;;;;;;;77.60;18.00;;;;;;;5.07;100.00;98707.06;5082518;28;20606;-62
2021/12/12 01:34:16;;;;;;;40.13;15.63;;;;;;;5.01;100.00;98694.66;5080135;28;20619;-62
2021/12/12 01:36:52;;;;;;;109.30;18.83;;;;;;;5.05;100.00;98701.13;5080589;28;20619;-62
2021/12/12 01:39:24;;;;;;;69.63;17.20;;;;;;;4.92;100.00;98695.09;5083334;28;20612;-62
2021/12/12 01:41:58;;;;;;;63.77;16.23;;;;;;;4.93;100.00;98689.56;5081177;28;20606;-63
2021/12/12 01:44:30;;;;;;;110.90;17.83;;;;;;;4.92;100.00;98685.28;5079637;28;20590;-63
2021/12/12 01:47:04;;;;;;;60.57;15.17;;;;;;;4.80;100.00;98684.28;5082499;28;20610;-63
2021/12/12 01:49:33;;;;;;;87.53;17.07;;;;;;;4.88;100.00;98686.72;5075583;28;20607;-63
2021/12/12 01:52:00;;;;;;;95.20;18.10;;;;;;;4.92;100.00;98681.84;5079408;28;20611;-63
2021/12/12 01:54:43;;;;;;;66.67;18.13;;;;;;;4.98;100.00;98681.81;5079561;28;20611;-64
2021/12/12 01:57:14;;;;;;;75.73;16.83;;;;;;;4.97;100.00;98685.50;5079490;28;20639;-63
2021/12/12 01:59:43;;;;;;;105.20;17.67;;;;;;;4.84;100.00;98688.16;5080038;28;20637;-62
2021/12/12 02:02:12;;;;;;;93.57;18.80;;;;;;;4.93;100.00;98684.28;5083015;28;20639;-62
2021/12/12 02:04:43;;;;;;;134.17;20.37;;;;;;;4.94;100.00;98693.03;5081917;28;20628;-62
2021/12/12 02:07:11;;;;;;;111.97;19.80;;;;;;;4.95;100.00;98684.06;5079214;28;20687;-63
2021/12/12 02:09:40;;;;;;;80.70;19.30;;;;;;;5.02;100.00;98690.97;5079211;28;20618;-63
2021/12/12 02:12:08;;;;;;;97.40;19.37;;;;;;;4.91;100.00;98694.25;5082488;28;20656;-63
2021/12/12 02:14:38;;;;;;;65.90;19.37;;;;;;;4.89;100.00;98702.41;5082705;28;20606;-62
2021/12/12 02:17:12;;;;;;;129.13;22.53;;;;;;;4.88;100.00;98702.63;5078989;28;20611;-63
2021/12/12 02:19:50;;;;;;;108.80;20.63;;;;;;;4.87;100.00;98700.97;5088703;28;20601;-65
2021/12/12 02:22:37;;;;;;;66.47;17.33;;;;;;;4.75;100.00;98715.88;5079031;28;20622;-63
2021/12/12 02:36:11;;;;;;;86.90;19.20;;;;;;;4.99;100.00;98727.63;5078762;28;20607;-62
2021/12/12 02:38:41;;;;;;;86.93;19.10;;;;;;;4.94;100.00;98725.59;5078736;28;20673;-62
2021/12/12 02:41:10;;;;;;;105.47;21.27;;;;;;;4.99;100.00;98727.63;5082094;28;20586;-63
2021/12/12 02:43:40;;;;;;;57.90;18.27;;;;;;;4.98;100.00;98729.47;5082038;28;20614;-63
2021/12/12 02:46:07;;;;;;;82.47;19.77;;;;;;;5.04;100.00;98723.34;5078535;28;20598;-62
2021/12/12 02:48:40;;;;;;;86.63;20.93;;;;;;;5.07;100.00;98716.81;5078631;28;20672;-63
2021/12/12 02:51:10;;;;;;;76.70;18.30;;;;;;;5.06;100.00;98715.19;5078446;28;20599;-62
2021/12/12 02:53:42;;;;;;;80.30;19.27;;;;;;;5.03;100.00;98716.41;5078513;28;20611;-63
2021/12/12 02:56:12;;;;;;;96.07;17.83;;;;;;;5.08;100.00;98721.91;5082023;28;20609;-63
2021/12/12 02:58:39;;;;;;;89.20;18.80;;;;;;;5.06;100.00;98721.31;5081251;28;21341;-62
2021/12/12 03:01:10;;;;;;;87.70;19.47;;;;;;;5.09;100.00;98717.41;5078329;28;20680;-62
2021/12/12 03:03:38;;;;;;;91.20;19.17;;;;;;;4.99;100.00;98712.56;5078023;28;20649;-62
2021/12/12 03:06:07;;;;;;;70.27;18.33;;;;;;;4.88;100.00;98721.13;5081622;28;20598;-62
2021/12/12 03:08:35;;;;;;;73.03;19.43;;;;;;;5.00;100.00;98727.44;5081559;28;20624;-62
2021/12/12 03:11:05;;;;;;;71.10;17.60;;;;;;;5.00;100.00;98724.78;5069584;28;20642;-62
2021/12/12 03:13:33;;;;;;;74.30;16.80;;;;;;;4.87;100.00;98735.38;5069905;28;20610;-62
2021/12/12 03:16:00;;;;;;;99.33;20.43;;;;;;;4.99;100.00;98717.84;5069121;28;20645;-63
2021/12/12 03:18:29;;;;;;;77.00;18.20;;;;;;;4.99;100.00;98711.72;5070019;28;20677;-62
2021/12/12 03:20:58;;;;;;;125.33;20.03;;;;;;;5.04;100.00;98727.81;5081828;28;20607;-62
2021/12/12 03:23:28;;;;;;;118.40;20.97;;;;;;;4.92;100.00;98727.63;5081381;28;20598;-62
2021/12/12 03:25:59;;;;;;;185.87;24.70;;;;;;;4.86;100.00;98728.44;5078540;28;21182;-63
2021/12/12 03:28:32;;;;;;;77.87;18.37;;;;;;;4.87;100.00;98722.16;5077848;28;20690;-63
2021/12/12 03:31:02;;;;;;;78.60;18.60;;;;;;;4.83;100.00;98734.97;5080813;28;20674;-63
2021/12/12 03:33:33;;;;;;;77.13;18.87;;;;;;;4.92;100.00;98727.63;5081427;28;20618;-62
2021/12/12 03:36:03;;;;;;;57.20;16.83;;;;;;;4.91;100.00;98726.03;5078032;28;20622;-62
2021/12/12 03:38:31;;;;;;;103.03;20.00;;;;;;;4.93;100.00;98731.91;5077847;28;20776;-63
2021/12/12 03:41:01;;;;;;;87.10;17.23;;;;;;;4.93;100.00;98737.22;5080929;28;20590;-63
2021/12/12 03:43:29;;;;;;;55.23;17.97;;;;;;;4.98;100.00;98731.31;5081445;28;20625;-63
2021/12/12 03:45:58;;;;;;;84.70;18.10;;;;;;;5.03;100.00;98737.59;5078572;28;20612;-64
2021/12/12 03:48:28;;;;;;;99.43;19.57;;;;;;;5.02;100.00;98732.50;5077951;28;20611;-62
2021/12/12 03:50:57;;;;;;;74.07;16.47;;;;;;;5.05;100.00;98738.19;5080124;28;20629;-63
2021/12/12 03:53:27;;;;;;;62.03;17.60;;;;;;;5.08;100.00;98740.44;5081453;28;20633;-63
2021/12/12 03:55:55;;;;;;;76.27;17.80;;;;;;;5.11;100.00;98737.38;5078765;28;20602;-63
2021/12/12 03:58:22;;;;;;;64.37;17.70;;;;;;;5.05;100.00;98740.84;5077763;28;20659;-62
2021/12/12 04:00:54;;;;;;;86.70;18.30;;;;;;;5.05;100.00;98740.84;5079052;28;20642;-62
2021/12/12 04:03:22;;;;;;;89.20;16.70;;;;;;;5.08;100.00;98732.47;5081008;28;20664;-62
2021/12/12 04:05:52;;;;;;;111.30;19.63;;;;;;;5.00;100.00;98730.06;5079104;28;20733;-62
2021/12/12 04:08:24;;;;;;;65.40;17.50;;;;;;;4.86;100.00;98728.44;5077426;28;20669;-62
2021/12/12 04:10:51;;;;;;;67.43;18.07;;;;;;;4.84;100.00;98735.81;5079372;28;20630;-63
2021/12/12 04:13:18;;;;;;;62.17;17.10;;;;;;;4.89;100.00;98741.28;5081108;28;20622;-62
2021/12/12 04:15:49;;;;;;;89.73;18.40;;;;;;;4.87;100.00;98749.44;5079780;28;20636;-63
2021/12/12 04:18:22;;;;;;;77.53;17.67;;;;;;;5.00;100.00;98751.25;5077349;28;20647;-63
2021/12/12 04:20:49;;;;;;;134.07;21.77;;;;;;;5.06;100.00;98750.41;5082188;28;20638;-63
2021/12/12 04:23:17;;;;;;;88.93;17.23;;;;;;;5.11;100.00;98752.44;5080864;28;20599;-63
2021/12/12 04:25:44;;;;;;;79.90;16.13;;;;;;;5.11;100.00;98757.72;5079699;28;21166;-63
2021/12/12 04:28:11;;;;;;;94.63;18.80;;;;;;;5.14;100.00;98760.78;5080991;28;20611;-63
2021/12/12 04:30:38;;;;;;;65.30;15.80;;;;;;;5.18;100.00;98769.94;5081203;28;20694;-63
2021/12/12 04:33:05;;;;;;;68.50;18.37;;;;;;;5.04;100.00;98767.53;5084570;28;20628;-63
2021/12/12 04:35:34;;;;;;;60.40;17.00;;;;;;;4.97;100.00;98775.50;5084400;28;20602;-63
2021/12/12 04:38:02;;;;;;;81.10;17.30;;;;;;;4.91;100.00;98781.59;5081003;28;21306;-64
2021/12/12 04:40:33;;;;;;;102.47;20.00;;;;;;;5.03;100.00;98789.72;5080940;28;20640;-63
2021/12/12 04:43:01;;;;;;;62.87;18.37;;;;;;;5.07;100.00;98783.84;5084040;28;20598;-63
2021/12/12 04:45:47;;;;;;;58.57;17.23;;;;;;;5.07;100.00;98789.13;5084477;28;20598;-63
2021/12/12 04:51:10;;;;;;;130.43;20.57;;;;;;;5.13;100.00;98788.28;5076111;28;20693;-63
2021/12/12 04:53:46;;;;;;;43.17;17.23;;;;;;;5.16;100.00;98798.47;5084246;28;20633;-63
2021/12/12 04:56:18;;;;;;;52.57;16.70;;;;;;;5.19;100.00;98808.66;5080816;28;20618;-64
2021/12/12 04:58:50;;;;;;;47.57;15.87;;;;;;;5.16;100.00;98808.25;5081717;28;20634;-63
2021/12/12 05:01:22;;;;;;;68.13;17.50;;;;;;;5.15;100.00;98796.84;5084184;28;20619;-63
2021/12/12 05:03:53;;;;;;;107.50;20.40;;;;;;;5.15;100.00;98812.72;5082012;28;20648;-63
2021/12/12 05:06:27;;;;;;;91.10;21.43;;;;;;;5.15;100.00;98815.38;5080586;28;20602;-63
2021/12/12 05:09:00;;;;;;;82.50;20.10;;;;;;;5.17;100.00;98818.63;5082423;28;20618;-63
2021/12/12 05:11:34;;;;;;;92.23;20.67;;;;;;;5.19;100.00;98813.94;5083781;28;20633;-63
2021/12/12 05:14:10;;;;;;;52.43;18.30;;;;;;;5.21;100.00;98811.06;5080414;28;20652;-63
2021/12/12 05:16:41;;;;;;;50.43;16.47;;;;;;;5.11;100.00;98806.22;5080266;28;20611;-62
2021/12/12 05:19:12;;;;;;;81.47;17.50;;;;;;;5.02;100.00;98820.69;5086894;28;20647;-62
2021/12/12 05:21:46;;;;;;;61.83;18.53;;;;;;;5.05;100.00;98811.50;5083406;28;20696;-63
2021/12/12 05:24:14;;;;;;;102.57;21.33;;;;;;;5.12;100.00;98821.09;5080114;28;20632;-63
2021/12/12 05:26:45;;;;;;;91.97;19.77;;;;;;;5.11;100.00;98829.22;5080414;28;20599;-63
2021/12/12 05:29:18;;;;;;;82.13;19.47;;;;;;;5.09;100.00;98820.69;5083431;28;20971;-63
2021/12/12 05:31:48;;;;;;;96.93;19.27;;;;;;;5.05;100.00;98828.22;5082170;28;20609;-62
2021/12/12 05:34:18;;;;;;;94.57;20.57;;;;;;;5.08;100.00;98835.75;5079885;28;20598;-62
2021/12/12 05:36:47;;;;;;;108.87;19.53;;;;;;;5.09;100.00;98844.50;5080863;28;20599;-62
2021/12/12 05:39:16;;;;;;;120.93;19.53;;;;;;;4.98;100.00;98837.19;5081468;28;21427;-62
2021/12/12 05:41:43;;;;;;;88.57;21.30;;;;;;;4.95;100.00;98838.41;5082236;28;20624;-63
2021/12/12 05:44:10;;;;;;;61.60;15.17;;;;;;;4.86;100.00;98840.44;5079716;28;20646;-63
2021/12/12 05:46:37;;;;;;;104.97;20.13;;;;;;;4.90;100.00;98848.78;5079479;28;20615;-62
2021/12/12 05:49:06;;;;;;;98.07;19.63;;;;;;;4.84;100.00;98836.38;5077933;28;20614;-63
2021/12/12 05:51:35;;;;;;;77.53;18.03;;;;;;;4.83;100.00;98850.59;5079054;28;20637;-62
2021/12/12 05:54:05;;;;;;;86.63;18.40;;;;;;;4.88;100.00;98848.19;5079552;28;21267;-62
2021/12/12 05:56:35;;;;;;;71.77;18.00;;;;;;;4.91;100.00;98858.38;5079523;28;20666;-63
2021/12/12 05:59:03;;;;;;;76.27;19.67;;;;;;;5.02;100.00;98854.28;5082660;28;20656;-63
2021/12/12 06:01:30;;;;;;;77.30;18.60;;;;;;;5.03;100.00;98856.72;5082752;28;20606;-63
2021/12/12 06:03:57;;;;;;;74.47;19.37;;;;;;;5.01;100.00;98856.13;5079910;28;20618;-63
2021/12/12 06:06:27;;;;;;;84.37;19.33;;;;;;;4.99;100.00;98852.84;5079203;28;20629;-63
2021/12/12 06:08:57;;;;;;;74.40;17.43;;;;;;;5.02;100.00;98852.44;5081142;28;20626;-62
2021/12/12 06:11:29;;;;;;;95.37;17.50;;;;;;;5.08;100.00;98858.75;5082432;28;20640;-63
2021/12/12 06:13:57;;;;;;;88.80;17.10;;;;;;;5.03;100.00;98855.91;5079706;28;20628;-63
2021/12/12 06:16:24;;;;;;;99.07;18.37;;;;;;;5.07;100.00;98860.59;5078862;28;20615;-63
2021/12/12 06:18:54;;;;;;;55.13;17.37;;;;;;;5.04;100.00;98861.03;5084017;28;20683;-63
2021/12/12 06:21:21;;;;;;;78.37;16.60;;;;;;;4.86;100.00;98858.97;5082503;28;20602;-62
2021/12/12 06:23:48;;;;;;;153.53;20.50;;;;;;;4.80;100.00;98861.59;5080620;28;20602;-62
2021/12/12 06:26:18;;;;;;;80.77;15.70;;;;;;;4.89;100.00;98857.72;5078795;28;20633;-63
2021/12/12 06:28:46;;;;;;;77.97;15.33;;;;;;;4.92;100.00;98870.56;5079751;28;20622;-63
2021/12/12 06:31:12;;;;;;;55.27;14.00;;;;;;;4.85;100.00;98867.94;5082114;28;20617;-63
2021/12/12 06:33:40;;;;;;;72.17;15.50;;;;;;;5.02;100.00;98870.97;5081711;28;20622;-63
2021/12/12 06:36:09;;;;;;;60.10;13.60;;;;;;;5.00;100.00;98875.66;5078464;28;20618;-63
2021/12/12 06:38:37;;;;;;;56.07;15.70;;;;;;;4.92;100.00;98881.16;5078536;28;20658;-63
2021/12/12 06:41:04;;;;;;;88.50;17.87;;;;;;;4.92;100.00;98883.00;5078580;28;20591;-63
2021/12/12 06:43:34;;;;;;;58.40;15.73;;;;;;;5.03;100.00;98877.09;5078591;28;20629;-62
2021/12/12 06:46:04;;;;;;;137.87;16.77;;;;;;;4.95;100.00;98872.81;5081470;28;20594;-63
2021/12/12 06:48:31;;;;;;;71.47;13.53;;;;;;;4.86;100.00;98882.78;5081003;28;20601;-63
2021/12/12 06:51:00;;;;;;;112.67;16.03;;;;;;;4.83;100.00;98887.66;5072143;28;20606;-62
2021/12/12 06:53:29;;;;;;;49.97;13.40;;;;;;;4.82;100.00;98886.88;5081964;28;20694;-63
2021/12/12 06:55:57;;;;;;;92.27;14.30;;;;;;;4.84;100.00;98890.13;5079053;28;21330;-62
2021/12/12 06:58:27;;;;;;;68.43;11.67;;;;;;;4.61;100.00;98892.31;5078210;28;20595;-63
2021/12/12 07:00:57;;;;;;;43.97;10.10;;;;;;;4.75;100.00;98901.09;5080349;28;20611;-63
2021/12/12 07:03:25;;;;;;;42.17;9.80;;;;;;;4.79;100.00;98903.16;5081801;28;20657;-63
2021/12/12 07:05:52;;;;;;;118.43;14.23;;;;;;;4.63;100.00;98911.47;5079335;28;20671;-62
2021/12/12 07:08:21;;;;;;;59.00;12.23;;;;;;;4.79;100.00;98916.38;5078133;28;21546;-62
2021/12/12 07:10:49;;;;;;;112.67;15.40;;;;;;;4.69;100.00;98917.78;5079126;28;20612;-63
2021/12/12 07:13:17;;;;;;;54.93;12.53;;;;;;;4.81;100.00;98918.81;5081527;28;21167;-63
2021/12/12 07:15:48;;;;;;;71.67;12.03;;;;;;;4.78;100.00;98929.81;5080421;28;20603;-64
2021/12/12 07:18:18;;;;;;;63.97;10.10;;;;;;;4.81;100.00;98932.03;5078032;28;20607;-62
2021/12/12 07:20:48;;;;;;;73.47;10.90;;;;;;;4.80;100.00;98936.53;5082135;28;20635;-63
2021/12/12 07:23:16;;;;;;;55.97;8.33;;;;;;;4.87;100.00;98937.34;5081437;28;20591;-63
2021/12/12 07:25:44;;;;;;;56.53;8.60;;;;;;;4.80;100.00;98941.81;5080417;28;20609;-64
2021/12/12 07:28:12;;;;;;;43.67;6.47;;;;;;;4.76;100.00;98939.78;5078007;28;20611;-62
2021/12/12 07:30:40;;;;;;;53.17;6.73;;;;;;;4.77;100.00;98942.22;5077944;28;20615;-63
2021/12/12 07:33:07;;;;;;;65.47;5.90;;;;;;;4.70;100.00;98946.69;5081225;28;20606;-63
2021/12/12 07:35:35;;;;;;;48.90;6.70;;;;;;;4.65;100.00;98943.00;5081317;28;20603;-63
2021/12/12 07:38:06;;;;;;;31.53;4.63;;;;;;;4.57;100.00;98948.47;5077728;28;20607;-63
2021/12/12 07:40:34;;;;;;;48.37;5.40;;;;;;;4.64;100.00;98946.69;5077738;28;20654;-62
2021/12/12 07:43:01;;;;;;;83.30;6.60;;;;;;;4.64;100.00;98954.63;5080804;28;20712;-63
2021/12/12 07:45:28;;;;;;;49.83;5.70;;;;;;;4.66;100.00;98955.22;5081308;28;21419;-63
2021/12/12 07:47:55;;;;;;;95.67;8.17;;;;;;;4.75;100.00;98961.97;5078486;28;20628;-62
2021/12/12 07:50:24;;;;;;;80.27;6.33;;;;;;;4.81;100.00;98963.81;5069339;28;20740;-62
2021/12/12 07:52:53;;;;;;;27.87;4.50;;;;;;;4.93;100.00;98966.66;5079433;28;20595;-63
2021/12/12 07:55:21;;;;;;;43.67;5.00;;;;;;;4.93;100.00;98969.31;5080937;28;20606;-62
2021/12/12 07:57:48;;;;;;;74.23;6.00;;;;;;;5.00;100.00;98973.63;5079436;28;20618;-62
2021/12/12 08:00:18;;;;;;;54.27;4.87;;;;;;;5.03;100.00;98975.88;5077505;28;20642;-62
2021/12/12 08:02:47;;;;;;;50.60;5.10;;;;;;;5.02;100.00;98982.16;5081735;28;20610;-63
2021/12/12 08:05:17;;;;;;;97.03;7.37;;;;;;;5.12;100.00;98982.59;5085015;28;20614;-62
2021/12/12 08:07:45;;;;;;;58.27;6.13;;;;;;;5.07;100.00;98987.69;5083879;28;20614;-63
2021/12/12 08:10:14;;;;;;;30.67;3.80;;;;;;;4.98;100.00;98990.72;5081428;28;20641;-62
2021/12/12 08:12:44;;;;;;;49.93;4.53;;;;;;;4.76;100.00;98987.41;5081871;28;20603;-63
2021/12/12 08:15:13;;;;;;;52.67;5.83;;;;;;;4.93;100.00;98996.59;5084827;28;20598;-62
2021/12/12 08:17:42;;;;;;;80.93;6.30;;;;;;;5.07;100.00;98995.63;5084407;28;20602;-62
2021/12/12 08:20:10;;;;;;;73.47;6.47;;;;;;;5.12;100.00;98981.78;5084585;28;20724;-63
2021/12/12 08:22:38;;;;;;;37.23;6.00;;;;;;;5.10;100.00;98979.34;5081460;28;20607;-62
2021/12/12 08:25:07;;;;;;;54.00;6.53;;;;;;;5.00;100.00;98994.78;5084582;28;20618;-65
2021/12/12 08:27:34;;;;;;;41.60;6.10;;;;;;;5.07;100.00;98978.94;5084716;28;20606;-63
2021/12/12 08:30:03;;;;;;;35.40;4.53;;;;;;;4.95;100.00;98977.91;5081233;28;20595;-63
2021/12/12 08:32:30;;;;;;;22.43;4.73;;;;;;;4.77;100.00;98975.78;5081143;28;20614;-63
2021/12/12 08:34:57;;;;;;;35.40;5.30;;;;;;;4.67;100.00;98975.38;5083711;28;20613;-63
2021/12/12 08:37:27;;;;;;;55.10;6.03;;;;;;;4.68;100.00;98988.41;5084280;28;20638;-63
2021/12/12 08:39:55;;;;;;;71.80;6.73;;;;;;;4.70;100.00;98986.38;5081582;28;20649;-64
2021/12/12 08:42:26;;;;;;;43.40;5.60;;;;;;;4.84;100.00;98990.69;5080844;28;20607;-63
2021/12/12 08:44:54;;;;;;;64.70;7.17;;;;;;;5.01;100.00;98990.31;5082693;28;20617;-63
2021/12/12 08:47:23;;;;;;;64.73;6.40;;;;;;;5.07;100.00;98990.34;5084132;28;20620;-64
2021/12/12 08:49:50;;;;;;;52.83;5.83;;;;;;;5.08;100.00;98986.66;5073859;28;20603;-62
2021/12/12 08:52:20;;;;;;;51.17;6.33;;;;;;;5.17;100.00;98984.66;5080605;28;20634;-62
2021/12/12 08:54:50;;;;;;;60.13;6.50;;;;;;;5.21;100.00;98985.84;5081808;28;20642;-63
2021/12/12 08:57:32;;;;;;;45.17;5.90;;;;;;;5.30;100.00;98985.47;5084149;28;20631;-64
2021/12/12 09:00:00;;;;;;;53.70;5.87;;;;;;;5.31;100.00;98983.63;5080764;28;20681;-63
2021/12/12 09:02:28;;;;;;;65.20;7.70;;;;;;;5.38;100.00;98992.41;5080464;28;20615;-63
2021/12/12 09:04:58;;;;;;;58.93;6.63;;;;;;;5.35;100.00;99004.19;5082633;28;20629;-63
2021/12/12 09:07:29;;;;;;;43.73;5.43;;;;;;;5.08;100.00;99010.47;5083712;28;20636;-63
2021/12/12 09:10:05;;;;;;;56.07;7.30;;;;;;;5.10;100.00;99008.47;5080837;28;20636;-63
2021/12/12 09:12:37;;;;;;;69.97;6.63;;;;;;;4.97;100.00;99011.09;5079470;28;20611;-63
2021/12/12 09:15:10;;;;;;;80.57;7.80;;;;;;;5.22;100.00;99017.44;5080060;28;20595;-62
2021/12/12 09:17:44;;;;;;;52.23;6.27;;;;;;;5.21;100.00;99013.16;5080174;28;20637;-63
2021/12/12 09:20:16;;;;;;;84.70;8.40;;;;;;;5.07;100.00;99011.53;5071504;28;20642;-63
2021/12/12 09:22:54;;;;;;;58.60;5.90;;;;;;;5.04;100.00;99009.28;5080659;28;20706;-64
2021/12/12 09:25:34;;;;;;;46.83;7.43;;;;;;;4.99;100.00;99008.22;5083430;28;20610;-64
2021/12/12 09:28:07;;;;;;;77.47;7.90;;;;;;;5.09;100.00;99011.31;5079875;28;20679;-63
2021/12/12 09:30:36;;;;;;;117.43;10.27;;;;;;;5.10;100.00;99005.81;5079739;28;20633;-62
2021/12/12 09:33:12;;;;;;;88.43;8.80;;;;;;;5.08;100.00;99001.72;5079560;28;20611;-63
2021/12/12 09:35:46;;;;;;;91.37;9.37;;;;;;;5.05;100.00;99008.25;5079826;28;20634;-63
2021/12/12 09:38:18;;;;;;;80.77;8.47;;;;;;;5.00;100.00;99010.69;5083198;28;20632;-64
2021/12/12 09:41:03;;;;;;;101.63;9.70;;;;;;;4.99;100.00;99003.75;5081657;28;20669;-63
2021/12/12 09:43:44;;;;;;;83.97;9.10;;;;;;;5.04;100.00;98995.22;5079468;28;20600;-62
2021/12/12 09:46:28;;;;;;;51.47;6.90;;;;;;;5.15;100.00;98984.84;5071300;28;20615;-62
2021/12/12 09:52:58;;;;;;;75.87;9.80;;;;;;;5.07;100.00;98979.75;5079643;28;20607;-63
2021/12/12 09:55:29;;;;;;;62.13;9.00;;;;;;;5.12;100.00;98977.31;5051094;28;20650;-63
2021/12/12 09:58:00;;;;;;;59.40;9.00;;;;;;;5.17;100.00;98979.34;5081984;28;20602;-63
2021/12/12 10:00:32;;;;;;;78.00;8.80;;;;;;;5.14;100.00;98979.72;5082741;28;20642;-63
2021/12/12 10:03:15;;;;;;;84.07;10.23;;;;;;;5.17;100.00;98977.50;5079775;28;20633;-63
2021/12/12 10:05:52;;;;;;;74.77;8.47;;;;;;;5.08;100.00;98969.94;5079637;28;20683;-63
2021/12/12 10:08:29;;;;;;;60.30;7.63;;;;;;;4.98;100.00;98964.25;5082678;28;20606;-63
2021/12/12 10:10:59;;;;;;;59.30;8.30;;;;;;;5.07;100.00;98969.16;5079572;28;20633;-63
2021/12/12 10:13:32;;;;;;;86.37;10.20;;;;;;;5.06;100.00;98974.63;5079140;28;20645;-62
2021/12/12 10:16:05;;;;;;;90.63;10.37;;;;;;;5.02;100.00;98968.94;5081820;28;20617;-63
2021/12/12 10:18:42;;;;;;;73.53;9.00;;;;;;;4.94;100.00;98965.66;5083296;28;20621;-63
2021/12/12 10:21:14;;;;;;;71.37;8.73;;;;;;;4.97;100.00;98963.44;5070540;28;20696;-62
2021/12/12 10:23:55;;;;;;;92.70;9.57;;;;;;;5.07;100.00;98968.34;5070425;28;20607;-63
2021/12/12 10:26:26;;;;;;;55.53;8.43;;;;;;;5.20;100.00;98953.25;5070480;28;20599;-62
2021/12/12 10:28:57;;;;;;;42.57;7.37;;;;;;;5.15;100.00;98961.00;5070396;28;20690;-63
2021/12/12 10:31:28;;;;;;;79.60;9.23;;;;;;;5.12;100.00;98953.47;5070339;28;20607;-64
2021/12/12 10:34:02;;;;;;;82.30;10.80;;;;;;;5.08;100.00;98957.53;5069999;28;20637;-63
2021/12/12 10:36:36;;;;;;;76.60;9.77;;;;;;;5.02;100.00;98949.56;5070294;28;20638;-63
2021/12/12 10:39:08;;;;;;;58.87;7.73;;;;;;;5.03;100.00;98952.03;5070286;28;20599;-63
2021/12/12 10:41:39;;;;;;;33.20;9.30;;;;;;;5.16;100.00;98936.16;5070462;28;20647;-62
2021/12/12 10:44:13;;;;;;;102.37;11.43;;;;;;;5.24;100.00;98935.97;5078445;28;20594;-63
2021/12/12 10:46:50;;;;;;;84.80;10.63;;;;;;;5.11;100.00;98938.59;5078959;28;20603;-63
2021/12/12 10:49:24;;;;;;;42.47;7.97;;;;;;;5.04;100.00;98934.31;5076714;28;20614;-62
2021/12/12 10:51:57;;;;;;;91.90;10.43;;;;;;;5.11;100.00;98930.66;5078372;28;20641;-62
2021/12/12 10:54:29;;;;;;;66.40;8.47;;;;;;;4.87;100.00;98928.59;5078394;28;20607;-62
2021/12/12 10:57:02;;;;;;;92.73;9.30;;;;;;;4.93;100.00;98930.44;5080681;28;20622;-64
2021/12/12 10:59:32;;;;;;;59.73;8.17;;;;;;;4.72;100.00;98934.06;5081810;28;20614;-63
2021/12/12 11:02:03;;;;;;;90.37;9.43;;;;;;;4.91;100.00;98937.78;5078676;28;20618;-63
2021/12/12 11:04:40;;;;;;;72.30;8.73;;;;;;;4.80;100.00;98931.22;5078207;28;20607;-62
2021/12/12 11:07:17;;;;;;;38.60;7.27;;;;;;;5.08;100.00;98930.22;5069922;28;20618;-63
2021/12/12 11:09:51;;;;;;;61.40;7.37;;;;;;;5.34;100.00;98933.72;5069801;28;20642;-62
2021/12/12 11:12:24;;;;;;;76.67;7.30;;;;;;;4.98;100.00;98933.31;5069780;28;20694;-63
2021/12/12 11:14:58;;;;;;;161.17;24.07;;;;;;;10.44;100.00;98930.50;5069669;28;20603;-64
2021/12/12 11:17:28;;;;;;;103.37;7.03;;;;;;;11.97;100.00;98924.81;5069376;28;20606;-62
2021/12/12 11:19:59;;;;;;;166.47;32.53;;;;;;;12.43;100.00;98927.03;5081058;28;20629;-65
2021/12/12 11:22:33;;;;;;;107.47;18.17;;;;;;;12.43;100.00;98919.00;5077665;28;20629;-65
2021/12/12 11:25:05;;;;;;;141.50;32.83;;;;;;;13.03;100.00;98911.84;5080639;28;20594;-65
2021/12/12 11:27:35;;;;;;;205.57;54.17;;;;;;;13.52;99.97;98921.41;5081141;28;20628;-64
2021/12/12 11:30:10;;;;;;;127.87;21.47;;;;;;;13.77;97.46;98918.09;5077509;28;20595;-64
2021/12/12 11:32:39;;;;;;;111.00;8.47;;;;;;;13.67;96.93;98908.09;5077679;28;20638;-63
2021/12/12 11:35:09;;;;;;;93.67;11.67;;;;;;;13.88;95.62;98917.88;5077758;28;20629;-64
2021/12/12 11:37:43;;;;;;;88.33;12.67;;;;;;;13.85;93.97;98915.72;5077244;28;20607;-64
2021/12/12 11:40:19;;;;;;;103.27;11.43;;;;;;;14.04;95.14;98914.22;5069156;28;20679;-64
2021/12/12 11:42:49;;;;;;;68.93;8.20;;;;;;;14.69;90.36;98912.91;5069236;28;20613;-65
2021/12/12 11:45:23;;;;;;;69.73;6.33;;;;;;;14.80;89.59;98911.03;5069404;28;20656;-66
2021/12/12 11:48:12;;;;;;;64.33;7.67;;;;;;;14.94;88.06;98910.25;5069243;28;20611;-66
2021/12/12 11:50:46;;;;;;;119.00;19.70;;;;;;;15.14;87.27;98912.97;5069265;28;20645;-64
2021/12/12 11:53:22;;;;;;;164.27;34.07;;;;;;;15.26;86.52;98914.56;5081008;28;20602;-64